createdAt,value
2023-02-05T00:00:06.004Z,9.747294
2023-02-05T00:01:05.993Z,9.747329
2023-02-05T00:02:06.017Z,9.747354
2023-02-05T00:03:05.990Z,9.747329
2023-02-05T00:04:06.029Z,9.747427
2023-02-05T00:05:05.964Z,9.747499
2023-02-05T00:06:06.909Z,9.747405
2023-02-05T00:07:05.925Z,9.747355
2023-02-05T00:08:05.927Z,9.747272
2023-02-05T00:09:05.918Z,9.747441
2023-02-05T00:10:05.945Z,9.747453
2023-02-05T00:11:05.849Z,9.747484
2023-02-05T00:12:05.863Z,9.747419
2023-02-05T00:13:05.862Z,9.747452
2023-02-05T00:14:05.870Z,9.747510
2023-02-05T00:15:05.890Z,9.747578
2023-02-05T00:16:05.794Z,9.747459
2023-02-05T00:17:05.938Z,9.747504
2023-02-05T00:18:05.851Z,9.747444
2023-02-05T00:19:05.882Z,9.747462
2023-02-05T00:20:05.907Z,9.747455
2023-02-05T00:21:05.782Z,9.747450
2023-02-05T00:22:05.776Z,9.747388
2023-02-05T00:23:05.776Z,9.747330
2023-02-05T00:24:05.811Z,9.747361
2023-02-05T00:25:05.778Z,9.747484
2023-02-05T00:26:05.788Z,9.747461
2023-02-05T00:27:05.822Z,9.747252
2023-02-05T00:28:05.867Z,9.747443
2023-02-05T00:29:05.766Z,9.747395
2023-02-05T00:30:05.753Z,9.747471
2023-02-05T00:31:05.827Z,9.747420
2023-02-05T00:32:05.806Z,9.747397
2023-02-05T00:33:05.702Z,9.747424
2023-02-05T00:34:05.671Z,9.747389
2023-02-05T00:35:05.720Z,9.747396
2023-02-05T00:36:05.675Z,9.747385
2023-02-05T00:37:05.761Z,9.747395
2023-02-05T00:38:05.823Z,9.747305
2023-02-05T00:39:05.661Z,9.747432
2023-02-05T00:40:05.727Z,9.747405
2023-02-05T00:41:05.654Z,9.747458
2023-02-05T00:42:05.630Z,9.747449
2023-02-05T00:43:05.618Z,9.747348
2023-02-05T00:44:05.624Z,9.747339
2023-02-05T00:45:05.714Z,9.747374
2023-02-05T00:46:05.764Z,9.747370
2023-02-05T00:47:05.573Z,9.747368
2023-02-05T00:48:05.632Z,9.747267
2023-02-05T00:49:05.569Z,9.747314
2023-02-05T00:50:05.578Z,9.747455
2023-02-05T00:51:05.589Z,9.747361
2023-02-05T00:52:05.546Z,9.747416
2023-02-05T00:53:05.562Z,9.747353
2023-02-05T00:54:05.534Z,9.747477
2023-02-05T00:55:05.542Z,9.747416
2023-02-05T00:56:05.584Z,9.747345
2023-02-05T00:57:05.583Z,9.747394
2023-02-05T00:58:05.670Z,9.747407
2023-02-05T00:59:05.492Z,9.747451
2023-02-05T01:00:05.498Z,9.747347
2023-02-05T01:01:05.585Z,9.747234
2023-02-05T01:02:05.488Z,9.747349
2023-02-05T01:03:05.556Z,9.747249
2023-02-05T01:04:05.529Z,9.747369
2023-02-05T01:05:05.481Z,9.747489
2023-02-05T01:06:05.508Z,9.747344
2023-02-05T01:07:05.441Z,9.747310
2023-02-05T01:08:05.674Z,9.747375
2023-02-05T01:09:05.498Z,9.747340
2023-02-05T01:10:05.432Z,9.747270
2023-02-05T01:11:05.432Z,9.747282
2023-02-05T01:12:05.397Z,9.747395
2023-02-05T01:13:05.454Z,9.747249
2023-02-05T01:14:05.411Z,9.747257
2023-02-05T01:15:05.420Z,9.747293
2023-02-05T01:16:05.541Z,9.747304
2023-02-05T01:17:05.380Z,9.747174
2023-02-05T01:18:05.386Z,9.747406
2023-02-05T01:19:05.393Z,9.747537
2023-02-05T01:20:05.360Z,9.747433
2023-02-05T01:21:05.412Z,9.747299
2023-02-05T01:22:05.360Z,9.747244
2023-02-05T01:23:05.319Z,9.747255
2023-02-05T01:24:05.323Z,9.747253
2023-02-05T01:25:05.307Z,9.747301
2023-02-05T01:26:05.342Z,9.747375
2023-02-05T01:27:05.308Z,9.747231
2023-02-05T01:28:05.454Z,9.747151
2023-02-05T01:29:05.306Z,9.747352
2023-02-05T01:30:05.290Z,9.747308
2023-02-05T01:31:05.426Z,9.747236
2023-02-05T01:32:05.279Z,9.747272
2023-02-05T01:33:05.277Z,9.747228
2023-02-05T01:34:05.321Z,9.747266
2023-02-05T01:35:05.286Z,9.747204
2023-02-05T01:36:05.360Z,9.747104
2023-02-05T01:37:05.267Z,9.747224
2023-02-05T01:38:05.207Z,9.747294
2023-02-05T01:39:05.267Z,9.747417
2023-02-05T01:40:05.196Z,9.747470
2023-02-05T01:41:05.229Z,9.747236
2023-02-05T01:42:05.198Z,9.747353
2023-02-05T01:43:05.201Z,9.747157
2023-02-05T01:44:05.161Z,9.747127
2023-02-05T01:45:05.206Z,9.747055
2023-02-05T01:46:05.278Z,9.747025
2023-02-05T01:47:05.181Z,9.747338
2023-02-05T01:48:05.146Z,9.747395
2023-02-05T01:49:05.137Z,9.747260
2023-02-05T01:50:05.239Z,9.747409
2023-02-05T01:51:05.162Z,9.747339
2023-02-05T01:52:05.114Z,9.747286
2023-02-05T01:53:05.110Z,9.747252
2023-02-05T01:54:05.107Z,9.747271
2023-02-05T01:55:05.082Z,9.747259
2023-02-05T01:56:05.195Z,9.747184
2023-02-05T01:57:05.105Z,9.747319
2023-02-05T01:58:05.083Z,9.747302
2023-02-05T01:59:05.050Z,9.747223
2023-02-05T02:00:05.078Z,9.747228
2023-02-05T02:01:05.076Z,9.747200
2023-02-05T02:02:05.046Z,9.747267
2023-02-05T02:03:05.075Z,9.747254
2023-02-05T02:04:05.037Z,9.747318
2023-02-05T02:05:05.073Z,9.747332
2023-02-05T02:06:05.077Z,9.747330
2023-02-05T02:07:04.990Z,9.747241
2023-02-05T02:08:05.020Z,9.747223
2023-02-05T02:09:05.050Z,9.747149
2023-02-05T02:10:05.052Z,9.747210
2023-02-05T02:11:05.012Z,9.747280
2023-02-05T02:12:04.978Z,9.747349
2023-02-05T02:13:05.078Z,9.747303
2023-02-05T02:14:04.961Z,9.747384
2023-02-05T02:15:04.963Z,9.747245
2023-02-05T02:16:05.037Z,9.747275
2023-02-05T02:17:04.950Z,9.747210
2023-02-05T02:18:04.958Z,9.747214
2023-02-05T02:19:04.900Z,9.747363
2023-02-05T02:20:04.901Z,9.747279
2023-02-05T02:21:04.929Z,9.747272
2023-02-05T02:22:04.926Z,9.747191
2023-02-05T02:23:04.992Z,9.747148
2023-02-05T02:24:04.887Z,9.747102
2023-02-05T02:25:04.904Z,9.747314
2023-02-05T02:26:04.907Z,9.747320
2023-02-05T02:27:04.860Z,9.747304
2023-02-05T02:28:04.958Z,9.747305
2023-02-05T02:29:04.879Z,9.747273
2023-02-05T02:30:04.910Z,9.747240
2023-02-05T02:31:05.183Z,9.746893
2023-02-05T02:32:04.834Z,9.747162
2023-02-05T02:33:04.856Z,9.747206
2023-02-05T02:34:04.924Z,9.747091
2023-02-05T02:35:04.842Z,9.747313
2023-02-05T02:36:05.103Z,9.747126
2023-02-05T02:37:04.923Z,9.747286
2023-02-05T02:38:04.898Z,9.747161
2023-02-05T02:39:04.968Z,9.747178
2023-02-05T02:40:04.946Z,9.747339
2023-02-05T02:41:04.877Z,9.747502
2023-02-05T02:42:04.745Z,9.747030
2023-02-05T02:43:04.733Z,9.747047
2023-02-05T02:44:04.756Z,9.747246
2023-02-05T02:45:04.748Z,9.747283
2023-02-05T02:46:04.715Z,9.747383
2023-02-05T02:47:04.753Z,9.747502
2023-02-05T02:48:04.703Z,9.747355
2023-02-05T02:49:04.730Z,9.747381
2023-02-05T02:50:04.735Z,9.747581
2023-02-05T02:51:04.748Z,9.747481
2023-02-05T02:52:04.890Z,9.747409
2023-02-05T02:53:04.695Z,9.747601
2023-02-05T02:54:04.663Z,9.747432
2023-02-05T02:55:04.683Z,9.747550
2023-02-05T02:56:04.699Z,9.747564
2023-02-05T02:57:04.722Z,9.747569
2023-02-05T02:58:04.656Z,9.747451
2023-02-05T02:59:04.743Z,9.747505
2023-02-05T03:00:04.742Z,9.747667
2023-02-05T03:01:04.699Z,9.747411
2023-02-05T03:02:04.677Z,9.747460
2023-02-05T03:03:04.665Z,9.747534
2023-02-05T03:04:04.610Z,9.747489
2023-02-05T03:05:04.648Z,9.747347
2023-02-05T03:06:04.638Z,9.747395
2023-02-05T03:07:04.727Z,9.747484
2023-02-05T03:08:04.675Z,9.747442
2023-02-05T03:09:04.721Z,9.747433
2023-02-05T03:10:04.592Z,9.747361
2023-02-05T03:11:04.586Z,9.747310
2023-02-05T03:12:05.688Z,9.747432
2023-02-05T03:13:04.589Z,9.747312
2023-02-05T03:14:04.560Z,9.747382
2023-02-05T03:15:04.576Z,9.747465
2023-02-05T03:16:04.663Z,9.747492
2023-02-05T03:17:04.573Z,9.747509
2023-02-05T03:18:04.595Z,9.747541
2023-02-05T03:19:04.603Z,9.747482
2023-02-05T03:20:04.519Z,9.747478
2023-02-05T03:21:04.510Z,9.747396
2023-02-05T03:22:04.625Z,9.747332
2023-02-05T03:23:04.600Z,9.747444
2023-02-05T03:24:04.528Z,9.747441
2023-02-05T03:25:04.489Z,9.747538
2023-02-05T03:26:04.701Z,9.747436
2023-02-05T03:27:04.625Z,9.747272
2023-02-05T03:28:04.554Z,9.747290
2023-02-05T03:29:04.474Z,9.747424
2023-02-05T03:30:04.437Z,9.747524
2023-02-05T03:31:04.520Z,9.747607
2023-02-05T03:32:04.446Z,9.747570
2023-02-05T03:33:05.478Z,9.747571
2023-02-05T03:34:04.488Z,9.747419
2023-02-05T03:35:04.414Z,9.747579
2023-02-05T03:36:04.411Z,9.747595
2023-02-05T03:37:04.460Z,9.747542
2023-02-05T03:38:04.483Z,9.747434
2023-02-05T03:39:04.436Z,9.747703
2023-02-05T03:40:04.412Z,9.747431
2023-02-05T03:41:04.437Z,9.747495
2023-02-05T03:42:04.414Z,9.747602
2023-02-05T03:43:04.471Z,9.747439
2023-02-05T03:44:04.380Z,9.747430
2023-02-05T03:45:04.458Z,9.747295
2023-02-05T03:46:04.365Z,9.747325
2023-02-05T03:47:04.425Z,9.747313
2023-02-05T03:48:04.398Z,9.747353
2023-02-05T03:49:04.401Z,9.747466
2023-02-05T03:50:04.327Z,9.747437
2023-02-05T03:51:04.300Z,9.747441
2023-02-05T03:52:04.295Z,9.747327
2023-02-05T03:53:04.319Z,9.747341
2023-02-05T03:54:04.289Z,9.747491
2023-02-05T03:55:04.350Z,9.747333
2023-02-05T03:56:04.242Z,9.747371
2023-02-05T03:57:04.289Z,9.747491
2023-02-05T03:58:05.225Z,9.747411
2023-02-05T03:59:04.225Z,9.747395
2023-02-05T04:00:04.185Z,9.747398
2023-02-05T04:01:04.269Z,9.747346
2023-02-05T04:02:04.412Z,9.747351
2023-02-05T04:03:04.247Z,9.747382
2023-02-05T04:04:04.212Z,9.747306
2023-02-05T04:05:04.181Z,9.747383
2023-02-05T04:06:04.179Z,9.747313
2023-02-05T04:07:04.164Z,9.747316
2023-02-05T04:08:04.180Z,9.747383
2023-02-05T04:09:04.137Z,9.747328
2023-02-05T04:10:04.194Z,9.747350
2023-02-05T04:11:04.114Z,9.747393
2023-02-05T04:12:04.168Z,9.747375
2023-02-05T04:13:04.112Z,9.747476
2023-02-05T04:14:04.124Z,9.747414
2023-02-05T04:15:04.113Z,9.747405
2023-02-05T04:16:04.154Z,9.747365
2023-02-05T04:17:04.108Z,9.747392
2023-02-05T04:18:04.104Z,9.747470
2023-02-05T04:19:04.105Z,9.747590
2023-02-05T04:20:04.147Z,9.747432
2023-02-05T04:21:04.117Z,9.747385
2023-02-05T04:22:04.034Z,9.747380
2023-02-05T04:23:04.094Z,9.747388
2023-02-05T04:24:04.086Z,9.747354
2023-02-05T04:25:04.056Z,9.747407
2023-02-05T04:26:04.110Z,9.747274
2023-02-05T04:27:04.234Z,9.747373
2023-02-05T04:28:04.178Z,9.747382
2023-02-05T04:29:04.049Z,9.747388
2023-02-05T04:30:04.016Z,9.747275
2023-02-05T04:31:04.047Z,9.747375
2023-02-05T04:32:04.090Z,9.747373
2023-02-05T04:33:04.112Z,9.747347
2023-02-05T04:34:04.971Z,9.747380
2023-02-05T04:35:04.045Z,9.747462
2023-02-05T04:36:04.092Z,9.747451
2023-02-05T04:37:03.932Z,9.747428
2023-02-05T04:38:03.952Z,9.747434
2023-02-05T04:39:03.960Z,9.747319
2023-02-05T04:40:03.912Z,9.747375
2023-02-05T04:41:03.982Z,9.747313
2023-02-05T04:42:03.922Z,9.747288
2023-02-05T04:43:03.966Z,9.747261
2023-02-05T04:44:03.898Z,9.747429
2023-02-05T04:45:03.872Z,9.747382
2023-02-05T04:46:04.140Z,9.747252
2023-02-05T04:47:03.853Z,9.747265
2023-02-05T04:48:03.880Z,9.747413
2023-02-05T04:49:03.843Z,9.747422
2023-02-05T04:50:03.812Z,9.747363
2023-02-05T04:51:03.810Z,9.747412
2023-02-05T04:52:03.836Z,9.747401
2023-02-05T04:53:03.923Z,9.747405
2023-02-05T04:54:03.880Z,9.747340
2023-02-05T04:55:03.803Z,9.747281
2023-02-05T04:56:03.780Z,9.747416
2023-02-05T04:57:03.788Z,9.747383
2023-02-05T04:58:03.840Z,9.747471
2023-02-05T04:59:03.770Z,9.747394
2023-02-05T05:00:03.743Z,9.747468
2023-02-05T05:01:04.826Z,9.747405
2023-02-05T05:02:35.672Z,9.747342
2023-02-05T05:03:03.732Z,9.747435
2023-02-05T05:04:03.749Z,9.747392
2023-02-05T05:05:03.725Z,9.747267
2023-02-05T05:06:03.713Z,9.747215
2023-02-05T05:07:03.698Z,9.747253
2023-02-05T05:08:03.707Z,9.747314
2023-02-05T05:09:03.709Z,9.747364
2023-02-05T05:10:03.678Z,9.747355
2023-02-05T05:11:03.666Z,9.747374
2023-02-05T05:12:03.663Z,9.747428
2023-02-05T05:13:03.653Z,9.747345
2023-02-05T05:14:03.675Z,9.747387
2023-02-05T05:15:03.640Z,9.747543
2023-02-05T05:16:03.696Z,9.747416
2023-02-05T05:17:03.688Z,9.747381
2023-02-05T05:18:03.665Z,9.747385
2023-02-05T05:19:03.647Z,9.747388
2023-02-05T05:20:03.596Z,9.747234
2023-02-05T05:21:03.628Z,9.747570
2023-02-05T05:22:03.596Z,9.747609
2023-02-05T05:23:03.583Z,9.747577
2023-02-05T05:24:03.603Z,9.747614
2023-02-05T05:25:04.456Z,9.747605
2023-02-05T05:26:03.557Z,9.747716
2023-02-05T05:27:03.551Z,9.747695
2023-02-05T05:28:03.591Z,9.747735
2023-02-05T05:29:03.574Z,9.747738
2023-02-05T05:30:03.528Z,9.747799
2023-02-05T05:31:03.538Z,9.747625
2023-02-05T05:32:03.551Z,9.748091
2023-02-05T05:33:03.512Z,9.747937
2023-02-05T05:34:03.527Z,9.747727
2023-02-05T05:35:03.498Z,9.747396
2023-02-05T05:36:03.482Z,9.747622
2023-02-05T05:37:04.480Z,9.747554
2023-02-05T05:38:03.467Z,9.747484
2023-02-05T05:39:03.499Z,9.747401
2023-02-05T05:40:03.456Z,9.747504
2023-02-05T05:41:03.449Z,9.747478
2023-02-05T05:42:03.442Z,9.747453
2023-02-05T05:43:03.425Z,9.747635
2023-02-05T05:44:04.450Z,9.747469
2023-02-05T05:45:03.417Z,9.747375
2023-02-05T05:46:03.455Z,9.747819
2023-02-05T05:47:03.418Z,9.747840
2023-02-05T05:48:03.402Z,9.747525
2023-02-05T05:49:03.425Z,9.747301
2023-02-05T05:50:03.424Z,9.747352
2023-02-05T05:51:03.391Z,9.747257
2023-02-05T05:52:03.366Z,9.747363
2023-02-05T05:53:03.369Z,9.747176
2023-02-05T05:54:03.400Z,9.747464
2023-02-05T05:55:03.340Z,9.747556
2023-02-05T05:56:03.326Z,9.747468
2023-02-05T05:57:03.324Z,9.747508
2023-02-05T05:58:03.313Z,9.747605
2023-02-05T05:59:03.363Z,9.747306
2023-02-05T06:00:03.313Z,9.747384
2023-02-05T06:01:03.298Z,9.747473
2023-02-05T06:02:03.291Z,9.747554
2023-02-05T06:03:03.282Z,9.747403
2023-02-05T06:04:04.359Z,9.747403
2023-02-05T06:05:04.259Z,9.747416
2023-02-05T06:06:03.270Z,9.747432
2023-02-05T06:07:03.241Z,9.747397
2023-02-05T06:08:03.253Z,9.747355
2023-02-05T06:09:03.259Z,9.747239
2023-02-05T06:10:03.222Z,9.747451
2023-02-05T06:11:03.220Z,9.747489
2023-02-05T06:12:03.225Z,9.747478
2023-02-05T06:13:03.195Z,9.747454
2023-02-05T06:14:03.219Z,9.747526
2023-02-05T06:15:03.181Z,9.747535
2023-02-05T06:16:03.197Z,9.747456
2023-02-05T06:17:03.191Z,9.747454
2023-02-05T06:18:03.162Z,9.747401
2023-02-05T06:19:03.184Z,9.747553
2023-02-05T06:20:03.188Z,9.747558
2023-02-05T06:21:03.138Z,9.747476
2023-02-05T06:22:03.164Z,9.747436
2023-02-05T06:23:03.129Z,9.747478
2023-02-05T06:24:03.148Z,9.747417
2023-02-05T06:25:03.113Z,9.747505
2023-02-05T06:26:03.101Z,9.747529
2023-02-05T06:27:03.091Z,9.747540
2023-02-05T06:28:03.138Z,9.747488
2023-02-05T06:29:03.104Z,9.747606
2023-02-05T06:30:03.093Z,9.747462
2023-02-05T06:31:03.143Z,9.747426
2023-02-05T06:32:03.115Z,9.747394
2023-02-05T06:33:03.049Z,9.747499
2023-02-05T06:34:03.037Z,9.747546
2023-02-05T06:35:03.069Z,9.747429
2023-02-05T06:36:03.028Z,9.747462
2023-02-05T06:37:03.046Z,9.747434
2023-02-05T06:38:03.031Z,9.747419
2023-02-05T06:39:03.007Z,9.747472
2023-02-05T06:40:03.023Z,9.747252
2023-02-05T06:41:02.987Z,9.747432
2023-02-05T06:42:02.986Z,9.747445
2023-02-05T06:43:02.970Z,9.747351
2023-02-05T06:44:02.997Z,9.747446
2023-02-05T06:45:03.171Z,9.747463
2023-02-05T06:46:03.011Z,9.747495
2023-02-05T06:47:02.983Z,9.747450
2023-02-05T06:48:03.025Z,9.747416
2023-02-05T06:49:02.949Z,9.747414
2023-02-05T06:50:02.961Z,9.747560
2023-02-05T06:51:02.909Z,9.747729
2023-02-05T06:52:02.935Z,9.747555
2023-02-05T06:53:02.935Z,9.747519
2023-02-05T06:54:02.906Z,9.747533
2023-02-05T06:55:02.915Z,9.747428
2023-02-05T06:56:02.870Z,9.747465
2023-02-05T06:57:03.874Z,9.747505
2023-02-05T06:58:02.870Z,9.747559
2023-02-05T06:59:02.848Z,9.747488
2023-02-05T07:00:02.870Z,9.747472
2023-02-05T07:01:02.853Z,9.747540
2023-02-05T07:02:02.837Z,9.747450
2023-02-05T07:03:02.930Z,9.747483
2023-02-05T07:04:02.811Z,9.747541
2023-02-05T07:05:02.837Z,9.747414
2023-02-05T07:06:02.799Z,9.747554
2023-02-05T07:07:02.792Z,9.747360
2023-02-05T07:08:02.800Z,9.747561
2023-02-05T07:09:02.801Z,9.747620
2023-02-05T07:10:02.820Z,9.747643
2023-02-05T07:11:02.781Z,9.747382
2023-02-05T07:12:02.761Z,9.747495
2023-02-05T07:13:04.492Z,9.747623
2023-02-05T07:14:02.761Z,9.747609
2023-02-05T07:15:02.764Z,9.747525
2023-02-05T07:16:02.777Z,9.747408
2023-02-05T07:17:02.754Z,9.747264
2023-02-05T07:18:02.701Z,9.747231
2023-02-05T07:19:03.707Z,9.747324
2023-02-05T07:20:02.724Z,9.747434
2023-02-05T07:21:03.739Z,9.747542
2023-02-05T07:22:02.732Z,9.747375
2023-02-05T07:23:02.680Z,9.747411
2023-02-05T07:24:02.669Z,9.747531
2023-02-05T07:25:04.448Z,9.747428
2023-02-05T07:26:03.650Z,9.747393
2023-02-05T07:27:02.662Z,9.747450
2023-02-05T07:28:02.675Z,9.747484
2023-02-05T07:29:02.634Z,9.747488
2023-02-05T07:30:02.670Z,9.747362
2023-02-05T07:31:02.759Z,9.747593
2023-02-05T07:32:02.695Z,9.747458
2023-02-05T07:33:02.601Z,9.747280
2023-02-05T07:34:02.618Z,9.747294
2023-02-05T07:35:02.611Z,9.747355
2023-02-05T07:36:02.587Z,9.747310
2023-02-05T07:37:02.610Z,9.747313
2023-02-05T07:38:02.571Z,9.747542
2023-02-05T07:39:02.622Z,9.747635
2023-02-05T07:40:02.573Z,9.747511
2023-02-05T07:41:02.537Z,9.747575
2023-02-05T07:42:02.530Z,9.747563
2023-02-05T07:43:02.521Z,9.747431
2023-02-05T07:44:02.551Z,9.747534
2023-02-05T07:45:02.544Z,9.747500
2023-02-05T07:46:02.502Z,9.747422
2023-02-05T07:47:02.488Z,9.747577
2023-02-05T07:48:02.477Z,9.747593
2023-02-05T07:49:02.476Z,9.747473
2023-02-05T07:50:02.500Z,9.747393
2023-02-05T07:51:02.466Z,9.747316
2023-02-05T07:52:02.458Z,9.747408
2023-02-05T07:53:02.445Z,9.747537
2023-02-05T07:54:02.433Z,9.747615
2023-02-05T07:55:02.454Z,9.747625
2023-02-05T07:56:02.419Z,9.747601
2023-02-05T07:57:02.418Z,9.747588
2023-02-05T07:58:02.405Z,9.747661
2023-02-05T07:59:02.402Z,9.747709
2023-02-05T08:00:02.419Z,9.747802
2023-02-05T08:01:02.408Z,9.747592
2023-02-05T08:02:02.390Z,9.747626
2023-02-05T08:03:02.363Z,9.747563
2023-02-05T08:04:02.421Z,9.747521
2023-02-05T08:05:02.348Z,9.747514
2023-02-05T08:06:02.366Z,9.747486
2023-02-05T08:07:02.339Z,9.747484
2023-02-05T08:08:02.325Z,9.747504
2023-02-05T08:09:02.878Z,9.747474
2023-02-05T08:10:02.308Z,9.747518
2023-02-05T08:11:02.329Z,9.747560
2023-02-05T08:12:02.332Z,9.747703
2023-02-05T08:13:02.277Z,9.747527
2023-02-05T08:14:02.306Z,9.747542
2023-02-05T08:15:02.271Z,9.747457
2023-02-05T08:16:02.300Z,9.747376
2023-02-05T08:17:02.260Z,9.747420
2023-02-05T08:18:02.254Z,9.747447
2023-02-05T08:19:02.256Z,9.747596
2023-02-05T08:20:02.240Z,9.747659
2023-02-05T08:21:02.251Z,9.747804
2023-02-05T08:22:03.224Z,9.747727
2023-02-05T08:23:02.215Z,9.747600
2023-02-05T08:24:02.207Z,9.747542
2023-02-05T08:25:02.202Z,9.747730
2023-02-05T08:26:02.217Z,9.747658
2023-02-05T08:27:02.210Z,9.747644
2023-02-05T08:28:02.219Z,9.747663
2023-02-05T08:29:02.173Z,9.747650
2023-02-05T08:30:02.171Z,9.747564
2023-02-05T08:31:02.214Z,9.747577
2023-02-05T08:32:02.163Z,9.747355
2023-02-05T08:33:02.134Z,9.747545
2023-02-05T08:34:02.132Z,9.747594
2023-02-05T08:35:02.147Z,9.747605
2023-02-05T08:36:02.143Z,9.747581
2023-02-05T08:37:02.106Z,9.747598
2023-02-05T08:38:02.096Z,9.747641
2023-02-05T08:39:02.099Z,9.747646
2023-02-05T08:40:02.087Z,9.747690
2023-02-05T08:41:02.116Z,9.747499
2023-02-05T08:42:02.068Z,9.747541
2023-02-05T08:43:02.069Z,9.747561
2023-02-05T08:44:02.049Z,9.747618
2023-02-05T08:45:02.066Z,9.747481
2023-02-05T08:46:02.086Z,9.747481
2023-02-05T08:47:02.033Z,9.747436
2023-02-05T08:48:02.020Z,9.747362
2023-02-05T08:49:02.009Z,9.747592
2023-02-05T08:50:02.010Z,9.747602
2023-02-05T08:51:02.028Z,9.747588
2023-02-05T08:52:02.001Z,9.747561
2023-02-05T08:53:01.998Z,9.747566
2023-02-05T08:54:01.975Z,9.747562
2023-02-05T08:55:01.967Z,9.747378
2023-02-05T08:56:01.991Z,9.747373
2023-02-05T08:57:01.956Z,9.747523
2023-02-05T08:58:01.977Z,9.747565
2023-02-05T08:59:01.936Z,9.747548
2023-02-05T09:00:01.954Z,9.747531
2023-02-05T09:01:01.961Z,9.747599
2023-02-05T09:02:01.921Z,9.747682
2023-02-05T09:03:01.912Z,9.747708
2023-02-05T09:04:01.946Z,9.747693
2023-02-05T09:05:08.899Z,9.747596
2023-02-05T09:06:03.923Z,9.747479
2023-02-05T09:07:01.880Z,9.747612
2023-02-05T09:08:01.876Z,9.747590
2023-02-05T09:09:01.869Z,9.747182
2023-02-05T09:10:01.857Z,9.747374
2023-02-05T09:11:01.880Z,9.747417
2023-02-05T09:12:01.839Z,9.747488
2023-02-05T09:13:01.843Z,9.747337
2023-02-05T09:14:01.830Z,9.747314
2023-02-05T09:15:01.843Z,9.747406
2023-02-05T09:16:01.875Z,9.747341
2023-02-05T09:17:01.812Z,9.747325
2023-02-05T09:18:01.797Z,9.747338
2023-02-05T09:19:01.791Z,9.747421
2023-02-05T09:20:01.820Z,9.747395
2023-02-05T09:21:01.815Z,9.747345
2023-02-05T09:22:01.773Z,9.747371
2023-02-05T09:23:01.766Z,9.747379
2023-02-05T09:24:01.768Z,9.747294
2023-02-05T09:25:01.757Z,9.747327
2023-02-05T09:26:01.768Z,9.747453
2023-02-05T09:27:01.736Z,9.747334
2023-02-05T09:28:01.768Z,9.747328
2023-02-05T09:29:01.715Z,9.747409
2023-02-05T09:30:01.711Z,9.747268
2023-02-05T09:31:01.756Z,9.747483
2023-02-05T09:32:01.696Z,9.747443
2023-02-05T09:33:01.684Z,9.747456
2023-02-05T09:34:01.685Z,9.747364
2023-02-05T09:35:01.686Z,9.747367
2023-02-05T09:36:01.698Z,9.747395
2023-02-05T09:37:01.660Z,9.747410
2023-02-05T09:38:01.660Z,9.747317
2023-02-05T09:39:14.702Z,9.747371
2023-02-05T09:40:21.217Z,9.747483
2023-02-05T09:41:03.655Z,9.747498
2023-02-05T09:42:01.639Z,9.747363
2023-02-05T09:43:01.633Z,9.747438
2023-02-05T09:44:01.609Z,9.747316
2023-02-05T09:45:01.597Z,9.747326
2023-02-05T09:46:01.677Z,9.747323
2023-02-05T09:47:01.584Z,9.747361
2023-02-05T09:48:01.586Z,9.747346
2023-02-05T09:49:01.573Z,9.747156
2023-02-05T09:50:01.575Z,9.747533
2023-02-05T09:51:01.594Z,9.747327
2023-02-05T09:52:01.589Z,9.747328
2023-02-05T09:53:01.543Z,9.747297
2023-02-05T09:54:01.559Z,9.747387
2023-02-05T09:55:01.587Z,9.747206
2023-02-05T09:56:01.558Z,9.747230
2023-02-05T09:57:01.510Z,9.747332
2023-02-05T09:58:01.554Z,9.747304
2023-02-05T09:59:01.491Z,9.747333
2023-02-05T10:00:01.507Z,9.747435
2023-02-05T10:01:01.553Z,9.747434
2023-02-05T10:02:01.610Z,9.747403
2023-02-05T10:03:01.468Z,9.747292
2023-02-05T10:04:01.510Z,9.747293
2023-02-05T10:05:01.457Z,9.747284
2023-02-05T10:06:01.439Z,9.747252
2023-02-05T10:07:01.457Z,9.747365
2023-02-05T10:08:01.420Z,9.747301
2023-02-05T10:09:01.408Z,9.747304
2023-02-05T10:10:01.400Z,9.747373
2023-02-05T10:11:01.394Z,9.747354
2023-02-05T10:12:01.422Z,9.747482
2023-02-05T10:13:01.386Z,9.747377
2023-02-05T10:14:01.373Z,9.747499
2023-02-05T10:15:01.368Z,9.747416
2023-02-05T10:16:01.489Z,9.747345
2023-02-05T10:17:01.385Z,9.747411
2023-02-05T10:18:01.359Z,9.747317
2023-02-05T10:19:01.369Z,9.747144
2023-02-05T10:20:01.344Z,9.746730
2023-02-05T10:21:01.328Z,9.747168
2023-02-05T10:22:01.343Z,9.747147
2023-02-05T10:23:01.306Z,9.747196
2023-02-05T10:24:01.301Z,9.747483
2023-02-05T10:25:01.303Z,9.747142
2023-02-05T10:26:01.277Z,9.747338
2023-02-05T10:27:01.300Z,9.747172
2023-02-05T10:28:01.320Z,9.747280
2023-02-05T10:29:01.263Z,9.747355
2023-02-05T10:30:01.275Z,9.747353
2023-02-05T10:31:01.324Z,9.747365
2023-02-05T10:32:01.266Z,9.747347
2023-02-05T10:33:02.124Z,9.747313
2023-02-05T10:34:01.268Z,9.747329
2023-02-05T10:35:01.262Z,9.747457
2023-02-05T10:36:01.210Z,9.747354
2023-02-05T10:37:01.221Z,9.747301
2023-02-05T10:38:03.284Z,9.747403
2023-02-05T10:39:01.191Z,9.747398
2023-02-05T10:40:01.235Z,9.747331
2023-02-05T10:41:01.193Z,9.747340
2023-02-05T10:42:01.210Z,9.747458
2023-02-05T10:43:01.176Z,9.747437
2023-02-05T10:44:01.165Z,9.747452
2023-02-05T10:45:01.145Z,9.747408
2023-02-05T10:46:01.182Z,9.747387
2023-02-05T10:47:01.189Z,9.747293
2023-02-05T10:48:01.143Z,9.747312
2023-02-05T10:49:01.116Z,9.747339
2023-02-05T10:50:01.162Z,9.747358
2023-02-05T10:51:01.119Z,9.747354
2023-02-05T10:52:01.116Z,9.747416
2023-02-05T10:53:02.086Z,9.747483
2023-02-05T10:54:01.084Z,9.747435
2023-02-05T10:55:01.077Z,9.747391
2023-02-05T10:56:01.090Z,9.747351
2023-02-05T10:57:01.087Z,9.747354
2023-02-05T10:58:01.047Z,9.747302
2023-02-05T10:59:01.048Z,9.747236
2023-02-05T11:00:01.070Z,9.747395
2023-02-05T11:01:01.029Z,9.747294
2023-02-05T11:19:20.622Z,9.747382
2023-02-05T11:20:20.623Z,9.747648
2023-02-05T11:21:20.615Z,9.747381
2023-02-05T11:22:20.628Z,9.747371
2023-02-05T11:23:20.602Z,9.747120
2023-02-05T11:24:20.593Z,9.747419
2023-02-05T11:25:20.584Z,9.747518
2023-02-05T11:26:20.625Z,9.747440
2023-02-05T11:27:20.568Z,9.747378
2023-02-05T11:28:20.683Z,9.747557
2023-02-05T11:29:20.548Z,9.747687
2023-02-05T11:30:37.657Z,9.747461
2023-02-05T11:31:22.605Z,9.747588
2023-02-05T11:32:20.658Z,9.747538
2023-02-05T11:33:20.551Z,9.747381
2023-02-05T11:34:20.526Z,9.747413
2023-02-05T11:35:20.519Z,9.747396
2023-02-05T11:36:20.494Z,9.747414
2023-02-05T11:37:20.493Z,9.747390
2023-02-05T11:38:20.510Z,9.747386
2023-02-05T11:39:20.515Z,9.747501
2023-02-05T11:40:20.480Z,9.747538
2023-02-05T11:41:20.461Z,9.747581
2023-02-05T11:42:20.468Z,9.747583
2023-02-05T11:43:20.469Z,9.747639
2023-02-05T11:44:20.452Z,9.747651
2023-02-05T11:45:20.429Z,9.747682
2023-02-05T11:46:21.524Z,9.747410
2023-02-05T11:47:20.416Z,9.747449
2023-02-05T11:48:20.432Z,9.747467
2023-02-05T11:49:20.421Z,9.747445
2023-02-05T11:50:20.394Z,9.747396
2023-02-05T11:51:20.444Z,9.747350
2023-02-05T11:52:20.383Z,9.747418
2023-02-05T11:53:20.399Z,9.747421
2023-02-05T11:54:20.431Z,9.747564
2023-02-05T11:55:20.356Z,9.747486
2023-02-05T11:56:22.300Z,9.747375
2023-02-05T11:57:21.361Z,9.747440
2023-02-05T11:58:31.468Z,9.747466
2023-02-05T11:59:22.409Z,9.747452
2023-02-05T12:00:20.320Z,9.747480
2023-02-05T12:01:20.310Z,9.747487